Bergerac-Roumanière Airport

Airport
ICAO code: 
LFBE
IATA Code: 
EGC
Summary
ICAO Region: 
EUR
Territory: 
Location: 
, Aquitaine
Serving: 
Bergerac
Elevation: 
171 ft
Coordinates: 
Aerial View: 
44° 49' 31.004" N, 0° 31' 7" E
Metar
Observation
LFBE 020300Z AUTO 27002KT 4400 BR OVC005 06/06 Q1007
Station
Bergerac
Date/Time
2021-12-02 03:00:00
Wind direction
270°
Wind speed
02 kts
Lowest cloud amount
overcast
Temperature
6°C
Dew point
6°C
Humidity
100%
QNH
1007 hPa
Weather condition
n/a

Runways

Designator Length Width Surface Rops
10/28 2205 45 ASP Yes/Yes
Airport map: 
Aerial View: 

Accidents and Serious Incidents at or in the vicinity of LFBE

SKYbrary Partners:

Safety knowledge contributed by: